sensor_id;sensor_type;location;lat;lon;timestamp;pressure;altitude;pressure_sealevel;temperature;humidity
63006;BME280;53704;52.532;6.426;2023-12-20T00:02:25;101420.44;;;4.18;100.00
63006;BME280;53704;52.532;6.426;2023-12-20T00:04:50;101420.88;;;4.25;100.00
63006;BME280;53704;52.532;6.426;2023-12-20T00:07:16;101410.63;;;4.31;100.00
63006;BME280;53704;52.532;6.426;2023-12-20T00:09:41;101408.38;;;4.25;100.00
63006;BME280;53704;52.532;6.426;2023-12-20T00:12:07;101405.28;;;4.31;100.00
63006;BME280;53704;52.532;6.426;2023-12-20T00:14:32;101407.44;;;4.26;100.00
63006;BME280;53704;52.532;6.426;2023-12-20T00:16:58;101394.22;;;4.12;100.00
63006;BME280;53704;52.532;6.426;2023-12-20T00:19:23;101399.56;;;4.12;100.00
63006;BME280;53704;52.532;6.426;2023-12-20T00:21:49;101392.84;;;4.06;100.00
63006;BME280;53704;52.532;6.426;2023-12-20T00:24:14;101394.22;;;4.12;100.00
63006;BME280;53704;52.532;6.426;2023-12-20T00:26:40;101394.44;;;4.09;100.00
63006;BME280;53704;52.532;6.426;2023-12-20T00:29:05;101395.94;;;4.13;100.00
63006;BME280;53704;52.532;6.426;2023-12-20T00:31:31;101394.97;;;4.01;100.00
63006;BME280;53704;52.532;6.426;2023-12-20T00:33:56;101391.03;;;4.07;100.00
63006;BME280;53704;52.532;6.426;2023-12-20T00:36:22;101390.75;;;3.98;100.00
63006;BME280;53704;52.532;6.426;2023-12-20T00:38:48;101380.81;;;4.01;100.00
63006;BME280;53704;52.532;6.426;2023-12-20T00:41:13;101381.22;;;4.07;100.00
63006;BME280;53704;52.532;6.426;2023-12-20T00:43:38;101379.31;;;3.96;100.00
63006;BME280;53704;52.532;6.426;2023-12-20T00:46:04;101380.81;;;4.01;100.00
63006;BME280;53704;52.532;6.426;2023-12-20T00:48:29;101372.50;;;4.05;100.00
63006;BME280;53704;52.532;6.426;2023-12-20T00:50:58;101381.88;;;3.98;100.00
63006;BME280;53704;52.532;6.426;2023-12-20T00:53:23;101385.06;;;4.03;100.00
63006;BME280;53704;52.532;6.426;2023-12-20T00:55:49;101381.22;;;4.07;100.00
63006;BME280;53704;52.532;6.426;2023-12-20T00:58:15;101383.59;;;3.99;100.00
63006;BME280;53704;52.532;6.426;2023-12-20T01:00:41;101384.44;;;3.99;100.00
63006;BME280;53704;52.532;6.426;2023-12-20T01:03:08;101384.22;;;4.03;100.00
63006;BME280;53704;52.532;6.426;2023-12-20T01:05:34;101381.47;;;3.91;100.00
63006;BME280;53704;52.532;6.426;2023-12-20T01:07:59;101382.97;;;3.95;100.00
63006;BME280;53704;52.532;6.426;2023-12-20T01:10:25;101383.91;;;3.94;100.00
63006;BME280;53704;52.532;6.426;2023-12-20T01:12:53;101376.97;;;3.92;100.00
63006;BME280;53704;52.532;6.426;2023-12-20T01:15:18;101375.19;;;3.92;100.00
63006;BME280;53704;52.532;6.426;2023-12-20T01:17:44;101366.41;;;3.90;100.00
63006;BME280;53704;52.532;6.426;2023-12-20T01:20:10;101365.69;;;3.88;100.00
63006;BME280;53704;52.532;6.426;2023-12-20T01:22:35;101371.00;;;3.88;100.00
63006;BME280;53704;52.532;6.426;2023-12-20T01:25:01;101371.84;;;3.89;100.00
63006;BME280;53704;52.532;6.426;2023-12-20T01:27:27;101368.44;;;3.87;100.00
63006;BME280;53704;52.532;6.426;2023-12-20T01:29:53;101369.53;;;3.97;100.00
63006;BME280;53704;52.532;6.426;2023-12-20T01:32:18;101380.09;;;3.98;100.00
63006;BME280;53704;52.532;6.426;2023-12-20T01:34:44;101375.16;;;4.05;100.00
63006;BME280;53704;52.532;6.426;2023-12-20T01:37:09;101376.13;;;3.91;100.00
63006;BME280;53704;52.532;6.426;2023-12-20T01:39:34;101374.94;;;3.83;100.00
63006;BME280;53704;52.532;6.426;2023-12-20T01:42:00;101377.38;;;3.86;100.00
63006;BME280;53704;52.532;6.426;2023-12-20T01:44:25;101374.09;;;3.82;100.00
63006;BME280;53704;52.532;6.426;2023-12-20T01:46:52;101365.91;;;3.85;100.00
63006;BME280;53704;52.532;6.426;2023-12-20T01:49:17;101363.22;;;3.85;100.00
63006;BME280;53704;52.532;6.426;2023-12-20T01:51:43;101365.69;;;3.88;100.00
63006;BME280;53704;52.532;6.426;2023-12-20T01:54:09;101349.06;;;3.85;100.00
63006;BME280;53704;52.532;6.426;2023-12-20T01:56:35;101350.22;;;3.80;100.00
63006;BME280;53704;52.532;6.426;2023-12-20T01:59:01;101358.84;;;3.84;100.00
63006;BME280;53704;52.532;6.426;2023-12-20T02:01:27;101353.53;;;3.84;100.00
63006;BME280;53704;52.532;6.426;2023-12-20T02:03:53;101357.16;;;3.83;100.00
63006;BME280;53704;52.532;6.426;2023-12-20T02:06:21;101355.66;;;3.79;100.00
63006;BME280;53704;52.532;6.426;2023-12-20T02:08:49;101355.03;;;3.88;100.00
63006;BME280;53704;52.532;6.426;2023-12-20T02:11:15;101360.34;;;3.88;100.00
63006;BME280;53704;52.532;6.426;2023-12-20T02:13:40;101357.81;;;3.87;100.00
63006;BME280;53704;52.532;6.426;2023-12-20T02:16:06;101351.84;;;3.83;100.00
63006;BME280;53704;52.532;6.426;2023-12-20T02:18:33;101340.31;;;3.83;100.00
63006;BME280;53704;52.532;6.426;2023-12-20T02:20:58;101346.31;;;3.86;100.00
63006;BME280;53704;52.532;6.426;2023-12-20T02:23:23;101337.13;;;3.90;100.00
63006;BME280;53704;52.532;6.426;2023-12-20T02:25:49;101332.22;;;3.84;100.00
63006;BME280;53704;52.532;6.426;2023-12-20T02:28:15;101322.75;;;3.80;100.00
63006;BME280;53704;52.532;6.426;2023-12-20T02:30:41;101326.06;;;3.84;100.00
63006;BME280;53704;52.532;6.426;2023-12-20T02:33:08;101330.53;;;3.83;100.00
63006;BME280;53704;52.532;6.426;2023-12-20T02:35:35;101332.56;;;3.92;100.00
63006;BME280;53704;52.532;6.426;2023-12-20T02:38:01;101330.31;;;3.86;100.00
63006;BME280;53704;52.532;6.426;2023-12-20T02:40:26;101330.09;;;3.89;100.00
63006;BME280;53704;52.532;6.426;2023-12-20T02:42:52;101325.22;;;3.83;100.00
63006;BME280;53704;52.532;6.426;2023-12-20T02:45:17;101318.06;;;3.84;100.00
63006;BME280;53704;52.532;6.426;2023-12-20T02:47:43;101316.13;;;3.86;100.00
63006;BME280;53704;52.532;6.426;2023-12-20T02:50:08;101316.91;;;3.88;100.00
63006;BME280;53704;52.532;6.426;2023-12-20T02:52:33;101315.91;;;3.89;100.00
63006;BME280;53704;52.532;6.426;2023-12-20T02:54:59;101317.53;;;3.91;100.00
63006;BME280;53704;52.532;6.426;2023-12-20T02:57:24;101313.16;;;3.90;100.00
63006;BME280;53704;52.532;6.426;2023-12-20T02:59:49;101307.50;;;3.95;100.00
63006;BME280;53704;52.532;6.426;2023-12-20T03:02:15;101307.38;;;3.96;100.00
63006;BME280;53704;52.532;6.426;2023-12-20T03:04:40;101304.94;;;3.93;100.00
63006;BME280;53704;52.532;6.426;2023-12-20T03:07:06;101300.03;;;4.00;100.00
63006;BME280;53704;52.532;6.426;2023-12-20T03:09:31;101299.81;;;4.03;100.00
63006;BME280;53704;52.532;6.426;2023-12-20T03:11:56;101297.38;;;4.00;100.00
63006;BME280;53704;52.532;6.426;2023-12-20T03:14:22;101298.53;;;4.09;100.00
63006;BME280;53704;52.532;6.426;2023-12-20T03:16:50;101302.03;;;4.09;100.00
63006;BME280;53704;52.532;6.426;2023-12-20T03:19:17;101301.91;;;4.11;100.00
63006;BME280;53704;52.532;6.426;2023-12-20T03:21:44;101313.97;;;4.16;100.00
63006;BME280;53704;52.532;6.426;2023-12-20T03:24:09;101309.38;;;4.19;100.00
63006;BME280;53704;52.532;6.426;2023-12-20T03:26:35;101304.03;;;4.19;100.00
63006;BME280;53704;52.532;6.426;2023-12-20T03:29:00;101292.44;;;4.20;100.00
63006;BME280;53704;52.532;6.426;2023-12-20T03:31:26;101303.69;;;4.23;100.00
63006;BME280;53704;52.532;6.426;2023-12-20T03:33:51;101302.97;;;4.21;100.00
63006;BME280;53704;52.532;6.426;2023-12-20T03:36:19;101295.72;;;4.23;100.00
63006;BME280;53704;52.532;6.426;2023-12-20T03:38:45;101300.81;;;4.26;100.00
63006;BME280;53704;52.532;6.426;2023-12-20T03:41:11;101295.50;;;4.26;100.00
63006;BME280;53704;52.532;6.426;2023-12-20T03:43:36;101286.53;;;4.27;100.00
63006;BME280;53704;52.532;6.426;2023-12-20T03:46:02;101293.44;;;4.30;100.00
63006;BME280;53704;52.532;6.426;2023-12-20T03:48:29;101303.38;;;4.28;100.00
63006;BME280;53704;52.532;6.426;2023-12-20T03:50:54;101311.38;;;4.28;100.00
63006;BME280;53704;52.532;6.426;2023-12-20T03:53:20;101300.59;;;4.29;100.00
63006;BME280;53704;52.532;6.426;2023-12-20T03:55:45;101297.94;;;4.29;100.00
63006;BME280;53704;52.532;6.426;2023-12-20T03:58:11;101292.28;;;4.34;100.00
63006;BME280;53704;52.532;6.426;2023-12-20T04:00:36;101288.44;;;4.38;100.00
63006;BME280;53704;52.532;6.426;2023-12-20T04:03:02;101298.00;;;4.41;100.00
63006;BME280;53704;52.532;6.426;2023-12-20T04:05:30;101296.66;;;4.35;100.00
63006;BME280;53704;52.532;6.426;2023-12-20T04:07:56;101291.31;;;4.35;100.00
63006;BME280;53704;52.532;6.426;2023-12-20T04:10:21;101296.53;;;4.37;100.00
63006;BME280;53704;52.532;6.426;2023-12-20T04:12:47;101281.81;;;4.31;100.00
63006;BME280;53704;52.532;6.426;2023-12-20T04:15:12;101270.72;;;4.37;100.00
63006;BME280;53704;52.532;6.426;2023-12-20T04:17:38;101271.84;;;4.46;100.00
63006;BME280;53704;52.532;6.426;2023-12-20T04:20:04;101271.56;;;4.38;100.00
63006;BME280;53704;52.532;6.426;2023-12-20T04:22:29;101276.91;;;4.38;100.00
63006;BME280;53704;52.532;6.426;2023-12-20T04:24:55;101280.13;;;4.30;100.00
63006;BME280;53704;52.532;6.426;2023-12-20T04:27:20;101277.34;;;4.31;100.00
63006;BME280;53704;52.532;6.426;2023-12-20T04:29:46;101269.56;;;4.28;100.00
63006;BME280;53704;52.532;6.426;2023-12-20T04:32:11;101263.50;;;4.26;100.00
63006;BME280;53704;52.532;6.426;2023-12-20T04:34:37;101262.66;;;4.26;100.00
63006;BME280;53704;52.532;6.426;2023-12-20T04:37:02;101254.94;;;4.34;100.00
63006;BME280;53704;52.532;6.426;2023-12-20T04:39:28;101258.28;;;4.25;100.00
63006;BME280;53704;52.532;6.426;2023-12-20T04:41:56;101257.72;;;4.32;100.00
63006;BME280;53704;52.532;6.426;2023-12-20T04:44:21;101260.06;;;4.37;100.00
63006;BME280;53704;52.532;6.426;2023-12-20T04:46:49;101266.00;;;4.41;100.00
63006;BME280;53704;52.532;6.426;2023-12-20T04:49:14;101272.59;;;4.48;100.00
63006;BME280;53704;52.532;6.426;2023-12-20T04:51:41;101268.72;;;4.52;100.00
63006;BME280;53704;52.532;6.426;2023-12-20T04:54:07;101264.88;;;4.56;100.00
63006;BME280;53704;52.532;6.426;2023-12-20T04:56:32;101271.94;;;4.57;100.00
63006;BME280;53704;52.532;6.426;2023-12-20T04:58:58;101266.06;;;4.52;100.00
63006;BME280;53704;52.532;6.426;2023-12-20T05:01:23;101259.03;;;4.51;100.00
63006;BME280;53704;52.532;6.426;2023-12-20T05:03:49;101257.44;;;4.48;100.00
63006;BME280;53704;52.532;6.426;2023-12-20T05:06:14;101265.94;;;4.53;100.00
63006;BME280;53704;52.532;6.426;2023-12-20T05:08:40;101266.59;;;4.57;100.00
63006;BME280;53704;52.532;6.426;2023-12-20T05:11:06;101256.75;;;4.58;100.00
63006;BME280;53704;52.532;6.426;2023-12-20T05:13:31;101251.44;;;4.58;100.00
63006;BME280;53704;52.532;6.426;2023-12-20T05:15:57;101240.91;;;4.67;100.00
63006;BME280;53704;52.532;6.426;2023-12-20T05:18:22;101240.56;;;4.72;100.00
63006;BME280;53704;52.532;6.426;2023-12-20T05:20:49;101252.84;;;4.75;100.00
63006;BME280;53704;52.532;6.426;2023-12-20T05:23:15;101250.28;;;4.73;100.00
63006;BME280;53704;52.532;6.426;2023-12-20T05:25:40;101249.19;;;4.76;100.00
63006;BME280;53704;52.532;6.426;2023-12-20T05:28:06;101247.06;;;4.81;100.00
63006;BME280;53704;52.532;6.426;2023-12-20T05:30:31;101253.22;;;4.81;100.00
63006;BME280;53704;52.532;6.426;2023-12-20T05:32:57;101240.72;;;4.82;100.00
63006;BME280;53704;52.532;6.426;2023-12-20T05:35:22;101238.44;;;4.88;100.00
63006;BME280;53704;52.532;6.426;2023-12-20T05:37:49;101242.69;;;4.91;100.00
63006;BME280;53704;52.532;6.426;2023-12-20T05:40:14;101246.31;;;4.90;100.00
63006;BME280;53704;52.532;6.426;2023-12-20T05:42:40;101244.41;;;4.92;100.00
63006;BME280;53704;52.532;6.426;2023-12-20T05:45:06;101242.69;;;4.91;100.00
63006;BME280;53704;52.532;6.426;2023-12-20T05:47:31;101244.19;;;4.95;100.00
63006;BME280;53704;52.532;6.426;2023-12-20T05:49:57;101235.94;;;4.98;100.00
63006;BME280;53704;52.532;6.426;2023-12-20T05:52:23;101245.03;;;4.96;100.00
63006;BME280;53704;52.532;6.426;2023-12-20T05:54:48;101241.28;;;4.98;100.00
63006;BME280;53704;52.532;6.426;2023-12-20T05:57:14;101239.22;;;5.02;100.00
63006;BME280;53704;52.532;6.426;2023-12-20T05:59:39;101244.19;;;5.06;100.00
63006;BME280;53704;52.532;6.426;2023-12-20T06:02:05;101240.53;;;5.07;100.00
63006;BME280;53704;52.532;6.426;2023-12-20T06:04:30;101229.03;;;5.07;100.00
63006;BME280;53704;52.532;6.426;2023-12-20T06:06:56;101242.38;;;5.07;100.00
63006;BME280;53704;52.532;6.426;2023-12-20T06:09:21;101236.31;;;5.05;100.00
63006;BME280;53704;52.532;6.426;2023-12-20T06:11:47;101236.81;;;5.10;100.00
63006;BME280;53704;52.532;6.426;2023-12-20T06:14:13;101235.97;;;5.10;100.00
63006;BME280;53704;52.532;6.426;2023-12-20T06:16:38;101235.50;;;5.16;100.00
63006;BME280;53704;52.532;6.426;2023-12-20T06:19:03;101233.66;;;5.16;100.00
63006;BME280;53704;52.532;6.426;2023-12-20T06:21:29;101231.00;;;5.16;100.00
63006;BME280;53704;52.532;6.426;2023-12-20T06:23:54;101229.50;;;5.12;100.00
63006;BME280;53704;52.532;6.426;2023-12-20T06:26:20;101227.25;;;5.19;100.00
63006;BME280;53704;52.532;6.426;2023-12-20T06:28:45;101214.63;;;5.21;100.00
63006;BME280;53704;52.532;6.426;2023-12-20T06:31:11;101229.03;;;5.18;100.00
63006;BME280;53704;52.532;6.426;2023-12-20T06:33:36;101226.78;;;5.25;100.00
63006;BME280;53704;52.532;6.426;2023-12-20T06:36:02;101227.50;;;5.27;100.00
63006;BME280;53704;52.532;6.426;2023-12-20T06:38:28;101215.09;;;5.26;100.00
63006;BME280;53704;52.532;6.426;2023-12-20T06:40:53;101221.91;;;5.30;100.00
63006;BME280;53704;52.532;6.426;2023-12-20T06:43:19;101219.25;;;5.30;100.00
63006;BME280;53704;52.532;6.426;2023-12-20T06:45:44;101224.59;;;5.30;100.00
63006;BME280;53704;52.532;6.426;2023-12-20T06:48:10;101227.97;;;5.32;100.00
63006;BME280;53704;52.532;6.426;2023-12-20T06:50:40;101221.81;;;5.32;100.00
63006;BME280;53704;52.532;6.426;2023-12-20T06:53:06;101218.13;;;5.33;100.00
63006;BME280;53704;52.532;6.426;2023-12-20T06:55:35;101221.69;;;5.33;100.00
63006;BME280;53704;52.532;6.426;2023-12-20T06:58:03;101217.06;;;5.35;100.00
63006;BME280;53704;52.532;6.426;2023-12-20T07:00:28;101213.19;;;5.39;100.00
63006;BME280;53704;52.532;6.426;2023-12-20T07:02:54;101215.00;;;5.39;100.00
63006;BME280;53704;52.532;6.426;2023-12-20T07:05:20;101215.97;;;5.38;100.00
63006;BME280;53704;52.532;6.426;2023-12-20T07:07:46;101200.44;;;5.43;100.00
63006;BME280;53704;52.532;6.426;2023-12-20T07:10:12;101209.28;;;5.43;100.00
63006;BME280;53704;52.532;6.426;2023-12-20T07:12:38;101204.69;;;5.46;100.00
63006;BME280;53704;52.532;6.426;2023-12-20T07:15:04;101207.38;;;5.46;100.00
63006;BME280;53704;52.532;6.426;2023-12-20T07:17:31;101203.00;;;5.44;100.00
63006;BME280;53704;52.532;6.426;2023-12-20T07:19:58;101201.16;;;5.45;100.00
63006;BME280;53704;52.532;6.426;2023-12-20T07:22:23;101204.59;;;5.47;100.00
63006;BME280;53704;52.532;6.426;2023-12-20T07:24:49;101203.59;;;5.48;100.00
63006;BME280;53704;52.532;6.426;2023-12-20T07:27:15;101191.94;;;5.49;100.00
63006;BME280;53704;52.532;6.426;2023-12-20T07:29:41;101199.59;;;5.54;100.00
63006;BME280;53704;52.532;6.426;2023-12-20T07:32:06;101197.66;;;5.56;100.00
63006;BME280;53704;52.532;6.426;2023-12-20T07:34:31;101201.16;;;5.56;100.00
63006;BME280;53704;52.532;6.426;2023-12-20T07:36:57;101184.28;;;5.56;100.00
63006;BME280;53704;52.532;6.426;2023-12-20T07:39:22;101177.25;;;5.55;100.00
63006;BME280;53704;52.532;6.426;2023-12-20T07:41:48;101192.78;;;5.61;100.00
63006;BME280;53704;52.532;6.426;2023-12-20T07:44:13;101183.34;;;5.57;100.00
63006;BME280;53704;52.532;6.426;2023-12-20T07:46:41;101174.94;;;5.61;100.00
63006;BME280;53704;52.532;6.426;2023-12-20T07:49:06;101177.97;;;5.68;100.00
63006;BME280;53704;52.532;6.426;2023-12-20T07:51:33;101191.09;;;5.60;100.00
63006;BME280;53704;52.532;6.426;2023-12-20T07:53:59;101189.03;;;5.64;100.00
63006;BME280;53704;52.532;6.426;2023-12-20T07:56:24;101197.50;;;5.69;100.00
63006;BME280;53704;52.532;6.426;2023-12-20T07:58:50;101194.00;;;5.68;100.00
63006;BME280;53704;52.532;6.426;2023-12-20T08:01:16;101209.03;;;5.69;100.00
63006;BME280;53704;52.532;6.426;2023-12-20T08:03:44;101209.53;;;5.74;100.00
63006;BME280;53704;52.532;6.426;2023-12-20T08:06:09;101206.13;;;5.72;100.00
63006;BME280;53704;52.532;6.426;2023-12-20T08:08:35;101204.78;;;5.78;100.00
63006;BME280;53704;52.532;6.426;2023-12-20T08:11:00;101196.91;;;5.76;100.00
63006;BME280;53704;52.532;6.426;2023-12-20T08:13:26;101196.78;;;5.78;100.00
63006;BME280;53704;52.532;6.426;2023-12-20T08:15:53;101208.19;;;5.80;100.00
63006;BME280;53704;52.532;6.426;2023-12-20T08:18:18;101209.88;;;5.81;100.00
63006;BME280;53704;52.532;6.426;2023-12-20T08:20:44;101197.63;;;5.78;100.00
63006;BME280;53704;52.532;6.426;2023-12-20T08:23:10;101206.38;;;5.80;100.00
63006;BME280;53704;52.532;6.426;2023-12-20T08:25:35;101211.47;;;5.72;100.00
63006;BME280;53704;52.532;6.426;2023-12-20T08:28:04;101201.28;;;5.77;100.00
63006;BME280;53704;52.532;6.426;2023-12-20T08:30:30;101208.41;;;5.77;100.00
63006;BME280;53704;52.532;6.426;2023-12-20T08:32:59;101214.88;;;5.74;100.00
63006;BME280;53704;52.532;6.426;2023-12-20T08:35:25;101216.31;;;5.78;100.00
63006;BME280;53704;52.532;6.426;2023-12-20T08:37:50;101200.91;;;5.82;100.00
63006;BME280;53704;52.532;6.426;2023-12-20T08:40:16;101212.69;;;5.79;100.00
63006;BME280;53704;52.532;6.426;2023-12-20T08:42:41;101201.75;;;5.83;100.00
63006;BME280;53704;52.532;6.426;2023-12-20T08:45:07;101191.19;;;5.81;100.00
63006;BME280;53704;52.532;6.426;2023-12-20T08:47:33;101192.53;;;5.87;100.00
63006;BME280;53704;52.532;6.426;2023-12-20T08:49:58;101192.88;;;5.93;100.00
63006;BME280;53704;52.532;6.426;2023-12-20T08:52:25;101191.16;;;5.92;100.00
63006;BME280;53704;52.532;6.426;2023-12-20T08:54:53;101199.78;;;5.96;100.00
63006;BME280;53704;52.532;6.426;2023-12-20T08:57:21;101206.94;;;5.95;100.00
63006;BME280;53704;52.532;6.426;2023-12-20T08:59:49;101195.19;;;5.98;100.00
63006;BME280;53704;52.532;6.426;2023-12-20T09:02:16;101189.34;;;6.04;100.00
63006;BME280;53704;52.532;6.426;2023-12-20T09:04:41;101197.25;;;6.06;100.00
63006;BME280;53704;52.532;6.426;2023-12-20T09:07:07;101198.09;;;6.06;100.00
63006;BME280;53704;52.532;6.426;2023-12-20T09:09:45;101198.09;;;6.06;100.00
63006;BME280;53704;52.532;6.426;2023-12-20T09:12:11;101196.88;;;6.10;100.00
63006;BME280;53704;52.532;6.426;2023-12-20T09:14:36;101206.56;;;6.11;100.00
63006;BME280;53704;52.532;6.426;2023-12-20T09:17:01;101202.94;;;6.12;100.00
63006;BME280;53704;52.532;6.426;2023-12-20T09:19:34;101198.56;;;6.11;100.00
63006;BME280;53704;52.532;6.426;2023-12-20T09:21:59;101204.38;;;6.16;100.00
63006;BME280;53704;52.532;6.426;2023-12-20T09:24:25;101207.91;;;6.17;100.00
63006;BME280;53704;52.532;6.426;2023-12-20T09:26:50;101194.78;;;6.14;100.00
63006;BME280;53704;52.532;6.426;2023-12-20T09:29:16;101204.38;;;6.16;100.00
63006;BME280;53704;52.532;6.426;2023-12-20T09:31:42;101203.16;;;6.21;100.00
63006;BME280;53704;52.532;6.426;2023-12-20T09:34:09;101200.34;;;6.22;100.00
63006;BME280;53704;52.532;6.426;2023-12-20T09:36:34;101207.28;;;6.25;100.00
63006;BME280;53704;52.532;6.426;2023-12-20T09:39:01;101198.53;;;6.23;100.00
63006;BME280;53704;52.532;6.426;2023-12-20T09:41:31;101213.09;;;6.30;100.00
63006;BME280;53704;52.532;6.426;2023-12-20T09:44:02;101215.13;;;6.38;100.00
63006;BME280;53704;52.532;6.426;2023-12-20T09:46:28;101212.72;;;6.34;100.00
63006;BME280;53704;52.532;6.426;2023-12-20T09:48:59;101217.81;;;6.38;100.00
63006;BME280;53704;52.532;6.426;2023-12-20T09:51:28;101209.66;;;6.39;100.00
63006;BME280;53704;52.532;6.426;2023-12-20T09:53:54;101199.44;;;6.44;100.00
63006;BME280;53704;52.532;6.426;2023-12-20T09:56:23;101197.72;;;6.43;100.00
63006;BME280;53704;52.532;6.426;2023-12-20T09:58:48;101205.47;;;6.46;100.00
63006;BME280;53704;52.532;6.426;2023-12-20T10:01:14;101214.25;;;6.48;100.00
63006;BME280;53704;52.532;6.426;2023-12-20T10:03:41;101212.75;;;6.56;100.00
63006;BME280;53704;52.532;6.426;2023-12-20T10:06:07;101210.00;;;6.67;100.00
63006;BME280;53704;52.532;6.426;2023-12-20T10:08:32;101212.69;;;6.67;100.00
63006;BME280;53704;52.532;6.426;2023-12-20T10:10:58;101214.53;;;6.66;100.00
63006;BME280;53704;52.532;6.426;2023-12-20T10:13:28;101221.47;;;6.69;100.00
63006;BME280;53704;52.532;6.426;2023-12-20T10:15:55;101217.66;;;6.72;100.00
63006;BME280;53704;52.532;6.426;2023-12-20T10:18:20;101208.91;;;6.69;100.00
63006;BME280;53704;52.532;6.426;2023-12-20T10:20:47;101212.19;;;6.73;100.00
63006;BME280;53704;52.532;6.426;2023-12-20T10:23:15;101219.69;;;6.79;100.00
63006;BME280;53704;52.532;6.426;2023-12-20T10:25:41;101202.94;;;6.77;100.00
63006;BME280;53704;52.532;6.426;2023-12-20T10:30:35;101201.78;;;6.80;100.00
63006;BME280;53704;52.532;6.426;2023-12-20T10:33:01;101195.78;;;6.87;100.00
63006;BME280;53704;52.532;6.426;2023-12-20T10:35:26;101208.16;;;6.79;100.00
63006;BME280;53704;52.532;6.426;2023-12-20T10:37:55;101226.13;;;6.77;100.00
63006;BME280;53704;52.532;6.426;2023-12-20T10:40:26;101252.13;;;6.65;100.00
63006;BME280;53704;52.532;6.426;2023-12-20T10:42:56;101257.63;;;5.97;100.00
63006;BME280;53704;52.532;6.426;2023-12-20T10:45:22;101249.50;;;5.76;100.00
63006;BME280;53704;52.532;6.426;2023-12-20T10:47:52;101255.16;;;5.37;100.00
63006;BME280;53704;52.532;6.426;2023-12-20T10:50:19;101275.53;;;5.27;100.00
63006;BME280;53704;52.532;6.426;2023-12-20T10:52:46;101256.88;;;5.27;100.00
63006;BME280;53704;52.532;6.426;2023-12-20T10:55:12;101265.59;;;5.29;100.00
63006;BME280;53704;52.532;6.426;2023-12-20T10:57:38;101261.84;;;5.32;100.00
63006;BME280;53704;52.532;6.426;2023-12-20T11:00:06;101268.38;;;5.28;100.00
63006;BME280;53704;52.532;6.426;2023-12-20T11:02:37;101253.81;;;5.20;100.00
63006;BME280;53704;52.532;6.426;2023-12-20T11:07:52;101251.53;;;5.27;100.00
63006;BME280;53704;52.532;6.426;2023-12-20T11:10:30;101255.63;;;5.31;100.00
63006;BME280;53704;52.532;6.426;2023-12-20T11:13:16;101259.28;;;5.30;100.00
63006;BME280;53704;52.532;6.426;2023-12-20T11:15:43;101247.63;;;5.31;100.00
63006;BME280;53704;52.532;6.426;2023-12-20T11:18:09;101254.78;;;5.31;100.00
63006;BME280;53704;52.532;6.426;2023-12-20T11:20:39;101253.47;;;5.36;100.00
63006;BME280;53704;52.532;6.426;2023-12-20T11:23:05;101258.47;;;5.41;100.00
63006;BME280;53704;52.532;6.426;2023-12-20T11:25:46;101252.00;;;5.32;100.00
63006;BME280;53704;52.532;6.426;2023-12-20T11:28:12;101255.41;;;5.34;100.00
63006;BME280;53704;52.532;6.426;2023-12-20T11:30:57;101239.66;;;5.42;100.00
63006;BME280;53704;52.532;6.426;2023-12-20T11:33:36;101242.28;;;5.31;100.00
63006;BME280;53704;52.532;6.426;2023-12-20T11:36:02;101237.34;;;5.38;100.00
63006;BME280;53704;52.532;6.426;2023-12-20T11:38:37;101232.84;;;5.27;100.00
63006;BME280;53704;52.532;6.426;2023-12-20T11:41:05;101233.69;;;5.39;100.00
63006;BME280;53704;52.532;6.426;2023-12-20T11:43:38;101232.47;;;5.32;100.00
63006;BME280;53704;52.532;6.426;2023-12-20T11:46:08;101240.25;;;5.35;100.00
63006;BME280;53704;52.532;6.426;2023-12-20T11:48:36;101233.31;;;5.21;100.00
63006;BME280;53704;52.532;6.426;2023-12-20T11:51:02;101226.03;;;5.23;100.00
63006;BME280;53704;52.532;6.426;2023-12-20T11:53:34;101225.31;;;5.32;100.00
63006;BME280;53704;52.532;6.426;2023-12-20T11:56:00;101226.78;;;5.36;100.00
63006;BME280;53704;52.532;6.426;2023-12-20T11:58:25;101224.34;;;5.44;100.00
63006;BME280;53704;52.532;6.426;2023-12-20T12:00:51;101219.50;;;5.38;100.00
63006;BME280;53704;52.532;6.426;2023-12-20T12:03:17;101219.00;;;5.67;100.00
63006;BME280;53704;52.532;6.426;2023-12-20T12:05:42;101217.06;;;5.58;100.00
63006;BME280;53704;52.532;6.426;2023-12-20T12:08:08;101206.84;;;5.52;100.00
63006;BME280;53704;52.532;6.426;2023-12-20T12:10:33;101215.84;;;5.62;100.00
63006;BME280;53704;52.532;6.426;2023-12-20T12:12:59;101212.06;;;5.53;100.00
63006;BME280;53704;52.532;6.426;2023-12-20T12:15:26;101199.09;;;5.60;100.00
63006;BME280;53704;52.532;6.426;2023-12-20T12:17:55;101180.78;;;5.55;100.00
63006;BME280;53704;52.532;6.426;2023-12-20T12:20:25;101173.34;;;5.70;100.00
63006;BME280;53704;52.532;6.426;2023-12-20T12:23:00;101168.09;;;5.80;100.00
63006;BME280;53704;52.532;6.426;2023-12-20T12:25:26;101170.69;;;5.59;100.00
63006;BME280;53704;52.532;6.426;2023-12-20T12:27:53;101176.50;;;5.64;100.00
63006;BME280;53704;52.532;6.426;2023-12-20T12:30:19;101184.16;;;5.57;100.00
63006;BME280;53704;52.532;6.426;2023-12-20T12:32:45;101187.56;;;5.59;100.00
63006;BME280;53704;52.532;6.426;2023-12-20T12:35:10;101179.28;;;5.74;100.00
63006;BME280;53704;52.532;6.426;2023-12-20T12:37:38;101161.47;;;5.63;100.00
63006;BME280;53704;52.532;6.426;2023-12-20T12:40:10;101155.63;;;5.80;100.00
63006;BME280;53704;52.532;6.426;2023-12-20T12:42:37;101145.47;;;5.95;100.00
63006;BME280;53704;52.532;6.426;2023-12-20T12:45:03;101143.56;;;5.86;100.00
63006;BME280;53704;52.532;6.426;2023-12-20T12:47:30;101145.53;;;5.73;100.00
63006;BME280;53704;52.532;6.426;2023-12-20T12:49:56;101145.38;;;5.86;100.00
63006;BME280;53704;52.532;6.426;2023-12-20T12:52:22;101147.59;;;5.80;100.00